ESCF/LPI METAR and TAF weather

Enter ICAO airport designator
Station Type Date Time Source
ESCF METAR 2024/04/18 06:50 UTC NOAA

ESCF 180650Z 05009KT 4500 -SN BKN012 OVC029 M01/M01 Q1013


Station Type Date Time Source
ESCF Decoded METAR 2024/04/18 06:50 UTC NOAA

Linkoping / Malmen, Sweden (ESCF) 58-24N 015-31E 117M
Apr 18, 2024 - 02:50 AM EDT / 2024.04.18 0650 UTC
Wind: from the NE (050 degrees) at 10 MPH (9 KT):0
Visibility: 2 mile(s):0
Sky conditions: overcast
Weather: light snow
Temperature: 30 F (-1 C)
Windchill: 21 F (-6 C):1
Dew Point: 30 F (-1 C)
Relative Humidity: 100%
Pressure (altimeter): 29.91 in. Hg (1013 hPa)
ob: ESCF 180650Z 05009KT 4500 -SN BKN012 OVC029 M01/M01 Q1013
cycle: 7

Station Type Date Time Source
ESCF TAF UTC NOAA

Error!

Example: see airport list